createdAt,value
2018-08-16T00:00:19.316Z,19.30
2018-08-16T00:02:47.685Z,12.00
2018-08-16T00:05:16.068Z,19.67
2018-08-16T00:07:44.369Z,11.07
2018-08-16T00:10:14.469Z,16.03
2018-08-16T00:12:44.185Z,13.00
2018-08-16T00:15:12.653Z,6.67
2018-08-16T00:17:41.249Z,10.23
2018-08-16T00:20:09.644Z,13.60
2018-08-16T00:22:37.839Z,14.97
2018-08-16T00:25:06.785Z,11.40
2018-08-16T00:27:34.961Z,7.37
2018-08-16T00:30:03.153Z,10.13
2018-08-16T00:32:31.329Z,7.20
2018-08-16T00:34:59.506Z,12.40
2018-08-16T00:37:27.676Z,6.23
2018-08-16T00:39:55.869Z,10.83
2018-08-16T00:42:24.047Z,10.07
2018-08-16T00:44:52.232Z,26.20
2018-08-16T00:47:20.412Z,20.90
2018-08-16T00:49:48.593Z,26.63
2018-08-16T00:52:16.780Z,18.27
2018-08-16T00:54:45.096Z,20.90
2018-08-16T00:57:13.268Z,22.97
2018-08-16T00:59:41.449Z,20.47
2018-08-16T01:02:09.634Z,12.37
2018-08-16T01:04:37.809Z,15.40
2018-08-16T01:07:06.084Z,17.47
2018-08-16T01:09:34.262Z,23.37
2018-08-16T01:12:02.449Z,23.43
2018-08-16T01:14:30.629Z,18.20
2018-08-16T01:16:58.973Z,12.60
2018-08-16T01:19:27.157Z,16.07
2018-08-16T01:24:28.950Z,30.87
2018-08-16T01:26:57.137Z,26.03
2018-08-16T01:29:25.329Z,27.43
2018-08-16T01:31:53.513Z,16.10
2018-08-16T01:34:21.701Z,15.40
2018-08-16T01:36:49.870Z,9.30
2018-08-16T01:39:18.053Z,15.47
2018-08-16T01:41:46.229Z,10.77
2018-08-16T01:44:14.409Z,8.27
2018-08-16T01:46:42.591Z,9.43
2018-08-16T01:49:27.365Z,10.40
2018-08-16T01:51:56.252Z,7.27
2018-08-16T01:54:24.628Z,10.00
2018-08-16T01:56:53.012Z,10.33
2018-08-16T01:59:21.401Z,6.23
2018-08-16T02:01:49.778Z,12.73
2018-08-16T02:04:17.985Z,12.57
2018-08-16T02:06:46.220Z,12.80
2018-08-16T02:09:14.405Z,10.10
2018-08-16T02:11:42.581Z,6.23
2018-08-16T02:14:10.779Z,9.87
2018-08-16T02:16:39.641Z,7.70
2018-08-16T02:19:07.824Z,8.37
2018-08-16T02:21:36.504Z,8.93
2018-08-16T02:24:05.059Z,9.73
2018-08-16T02:26:33.364Z,12.70
2018-08-16T02:29:01.670Z,8.47
2018-08-16T02:31:29.850Z,9.17
2018-08-16T02:33:58.037Z,6.20
2018-08-16T02:36:26.681Z,7.67
2018-08-16T02:38:55.263Z,8.17
2018-08-16T02:41:23.466Z,7.77
2018-08-16T02:43:51.640Z,6.47
2018-08-16T02:46:19.829Z,11.53
2018-08-16T02:48:48.010Z,10.27
2018-08-16T02:51:16.181Z,10.37
2018-08-16T02:53:44.361Z,5.53
2018-08-16T02:56:12.724Z,7.83
2018-08-16T02:58:40.896Z,11.20
2018-08-16T03:01:09.074Z,7.27
2018-08-16T03:03:37.261Z,10.77
2018-08-16T03:06:05.461Z,8.13
2018-08-16T03:08:33.633Z,6.00
2018-08-16T03:11:01.816Z,6.87
2018-08-16T03:13:30.001Z,7.77
2018-08-16T03:15:58.190Z,6.40
2018-08-16T03:18:26.368Z,9.80
2018-08-16T03:20:54.540Z,5.40
2018-08-16T03:23:22.741Z,6.93
2018-08-16T03:25:50.917Z,7.20
2018-08-16T03:28:19.093Z,9.20
2018-08-16T03:30:47.267Z,5.97
2018-08-16T03:33:15.441Z,8.30
2018-08-16T03:35:43.641Z,7.50
2018-08-16T03:38:11.815Z,6.10
2018-08-16T03:40:39.994Z,9.33
2018-08-16T03:43:08.164Z,10.00
2018-08-16T03:45:36.328Z,9.17
2018-08-16T03:48:04.520Z,6.57
2018-08-16T03:50:32.702Z,9.50
2018-08-16T03:53:00.877Z,8.00
2018-08-16T03:55:29.052Z,9.80
2018-08-16T03:57:57.233Z,8.20
2018-08-16T04:00:25.427Z,11.43
2018-08-16T04:02:53.621Z,6.83
2018-08-16T04:05:21.797Z,9.23
2018-08-16T04:07:49.965Z,8.67
2018-08-16T04:10:18.148Z,5.23
2018-08-16T04:12:46.324Z,6.27
2018-08-16T04:15:14.519Z,8.03
2018-08-16T04:17:42.682Z,6.50
2018-08-16T04:20:10.860Z,6.20
2018-08-16T04:22:39.040Z,11.10
2018-08-16T04:25:07.229Z,7.93
2018-08-16T04:27:35.409Z,6.93
2018-08-16T04:30:04.248Z,5.47
2018-08-16T04:32:32.445Z,6.37
2018-08-16T04:35:00.688Z,9.97
2018-08-16T04:37:28.800Z,5.87
2018-08-16T04:39:56.982Z,7.57
2018-08-16T04:42:25.160Z,5.40
2018-08-16T04:44:53.349Z,6.23
2018-08-16T04:47:21.526Z,5.83
2018-08-16T04:49:49.700Z,7.13
2018-08-16T04:52:17.877Z,6.20
2018-08-16T04:54:46.048Z,5.10
2018-08-16T04:57:14.222Z,7.47
2018-08-16T04:59:42.399Z,6.50
2018-08-16T05:02:10.581Z,6.47
2018-08-16T05:04:38.753Z,5.30
2018-08-16T05:07:06.933Z,4.70
2018-08-16T05:09:35.108Z,5.80
2018-08-16T05:12:03.301Z,7.73
2018-08-16T05:14:31.472Z,4.83
2018-08-16T05:16:59.656Z,7.00
2018-08-16T05:19:27.824Z,5.33
2018-08-16T05:21:56.005Z,5.43
2018-08-16T05:24:24.177Z,4.80
2018-08-16T05:26:52.357Z,9.20
2018-08-16T05:29:20.535Z,7.17
2018-08-16T05:31:48.727Z,5.30
2018-08-16T05:34:16.893Z,6.57
2018-08-16T05:36:45.064Z,4.70
2018-08-16T05:39:13.461Z,6.53
2018-08-16T05:41:41.941Z,4.23
2018-08-16T05:44:10.121Z,5.97
2018-08-16T05:46:38.293Z,5.03
2018-08-16T05:49:06.465Z,4.23
2018-08-16T05:51:34.645Z,4.10
2018-08-16T05:54:02.821Z,4.80
2018-08-16T05:56:31.008Z,4.80
2018-08-16T05:58:59.196Z,5.83
2018-08-16T06:01:27.393Z,4.47
2018-08-16T06:03:55.593Z,3.60
2018-08-16T06:06:23.793Z,7.07
2018-08-16T06:08:51.977Z,4.00
2018-08-16T06:11:20.149Z,3.20
2018-08-16T06:13:48.346Z,5.37
2018-08-16T06:16:16.525Z,3.30
2018-08-16T06:18:44.684Z,3.40
2018-08-16T06:21:12.870Z,3.47
2018-08-16T06:23:41.133Z,3.13
2018-08-16T06:26:09.309Z,4.10
2018-08-16T06:28:37.574Z,3.23
2018-08-16T06:31:05.811Z,3.67
2018-08-16T06:33:33.933Z,3.23
2018-08-16T06:36:02.109Z,3.10
2018-08-16T06:38:30.295Z,3.90
2018-08-16T06:40:58.477Z,6.40
2018-08-16T06:43:26.684Z,4.23
2018-08-16T06:45:54.860Z,4.30
2018-08-16T06:48:23.036Z,5.50
2018-08-16T06:50:51.205Z,3.10
2018-08-16T06:53:19.393Z,3.97
2018-08-16T06:55:47.597Z,3.50
2018-08-16T06:58:15.877Z,4.77
2018-08-16T07:00:44.021Z,5.60
2018-08-16T07:03:12.209Z,5.37
2018-08-16T07:05:40.734Z,3.30
2018-08-16T07:08:09.196Z,2.93
2018-08-16T07:10:37.373Z,2.73
2018-08-16T07:13:05.553Z,2.70
2018-08-16T07:15:33.742Z,7.23
2018-08-16T07:18:01.919Z,5.27
2018-08-16T07:20:30.097Z,4.47
2018-08-16T07:22:58.272Z,5.27
2018-08-16T07:25:26.441Z,6.07
2018-08-16T07:27:54.620Z,4.40
2018-08-16T07:30:22.804Z,2.87
2018-08-16T07:32:50.984Z,3.43
2018-08-16T07:35:19.166Z,4.00
2018-08-16T07:37:47.345Z,4.20
2018-08-16T07:40:15.529Z,4.40
2018-08-16T07:42:43.760Z,3.03
2018-08-16T07:45:12.233Z,3.63
2018-08-16T07:47:40.602Z,5.50
2018-08-16T07:50:09.896Z,3.80
2018-08-16T07:52:38.698Z,3.37
2018-08-16T07:55:07.177Z,4.70
2018-08-16T07:57:35.374Z,3.37
2018-08-16T08:00:04.237Z,2.83
2018-08-16T08:02:32.417Z,2.60
2018-08-16T08:05:00.594Z,3.40
2018-08-16T08:07:28.765Z,3.17
2018-08-16T08:09:56.958Z,2.90
2018-08-16T08:12:25.124Z,3.03
2018-08-16T08:14:53.296Z,3.60
2018-08-16T08:17:21.477Z,3.60
2018-08-16T08:19:49.649Z,4.40
2018-08-16T08:22:17.831Z,2.50
2018-08-16T08:24:46.013Z,4.13
2018-08-16T08:27:14.202Z,3.47
2018-08-16T08:29:42.376Z,3.07
2018-08-16T08:32:10.549Z,3.20
2018-08-16T08:34:38.730Z,3.67
2018-08-16T08:37:18.325Z,4.80
2018-08-16T08:39:46.504Z,2.70
2018-08-16T08:42:14.682Z,2.93
2018-08-16T08:44:42.853Z,3.20
2018-08-16T08:47:11.190Z,2.73
2018-08-16T08:49:39.366Z,2.80
2018-08-16T08:52:07.539Z,2.90
2018-08-16T08:54:49.357Z,5.37
2018-08-16T08:57:30.872Z,2.63
2018-08-16T08:59:59.049Z,3.33
2018-08-16T09:02:27.221Z,4.00
2018-08-16T09:04:55.401Z,3.30
2018-08-16T09:07:24.484Z,2.70
2018-08-16T09:11:08.469Z,2.70
2018-08-16T09:13:48.189Z,2.70
2018-08-16T09:16:18.706Z,2.60
2018-08-16T09:18:46.893Z,3.47
2018-08-16T09:21:15.476Z,2.60
2018-08-16T09:23:43.656Z,2.83
2018-08-16T09:26:17.400Z,3.93
2018-08-16T09:28:45.564Z,2.67
2018-08-16T09:31:25.716Z,2.83
2018-08-16T09:34:05.509Z,4.17
2018-08-16T09:36:34.709Z,2.70
2018-08-16T09:39:02.930Z,6.23
2018-08-16T09:41:31.149Z,2.80
2018-08-16T09:43:59.309Z,4.53
2018-08-16T09:46:55.417Z,3.20
2018-08-16T09:49:23.585Z,3.00
2018-08-16T09:51:51.821Z,4.27
2018-08-16T09:54:20.126Z,3.17
2018-08-16T09:56:48.810Z,3.00
2018-08-16T09:59:17.397Z,3.53
2018-08-16T10:01:45.577Z,2.60
2018-08-16T10:04:13.759Z,2.97
2018-08-16T10:06:42.564Z,2.57
2018-08-16T10:09:19.699Z,3.10
2018-08-16T10:11:48.298Z,2.50
2018-08-16T10:14:16.781Z,2.83
2018-08-16T10:16:45.639Z,2.90
2018-08-16T10:19:13.848Z,2.43
2018-08-16T10:21:42.232Z,2.63
2018-08-16T10:24:10.404Z,2.73
2018-08-16T10:26:38.684Z,2.70
2018-08-16T10:29:07.569Z,2.80
2018-08-16T10:31:35.758Z,3.23
2018-08-16T10:34:04.093Z,2.70
2018-08-16T10:36:32.505Z,3.20
2018-08-16T10:39:00.676Z,3.70
2018-08-16T10:41:29.270Z,3.17
2018-08-16T10:43:57.536Z,2.73
2018-08-16T10:46:25.746Z,2.60
2018-08-16T10:48:53.914Z,2.50
2018-08-16T10:51:22.090Z,2.50
2018-08-16T10:53:50.269Z,2.93
2018-08-16T10:56:18.548Z,2.93
2018-08-16T10:58:46.713Z,3.13
2018-08-16T11:01:14.933Z,2.87
2018-08-16T11:03:43.081Z,2.70
2018-08-16T11:06:11.343Z,3.77
2018-08-16T11:08:39.525Z,4.63
2018-08-16T11:11:07.868Z,3.07
2018-08-16T11:13:36.042Z,3.13
2018-08-16T11:16:04.225Z,3.20
2018-08-16T11:18:32.514Z,2.33
2018-08-16T11:21:00.888Z,4.33
2018-08-16T11:23:29.069Z,2.47
2018-08-16T11:25:57.249Z,2.57
2018-08-16T11:28:25.420Z,2.30
2018-08-16T11:30:53.617Z,3.03
2018-08-16T11:33:21.793Z,2.67
2018-08-16T11:35:50.001Z,1.90
2018-08-16T11:38:18.188Z,2.63
2018-08-16T11:40:46.441Z,3.07
2018-08-16T11:43:14.537Z,2.80
2018-08-16T11:45:42.716Z,2.50
2018-08-16T11:48:10.905Z,3.20
2018-08-16T11:50:39.087Z,2.63
2018-08-16T11:53:07.260Z,2.93
2018-08-16T11:55:35.439Z,2.53
2018-08-16T11:58:03.626Z,2.73
2018-08-16T12:00:31.805Z,2.47
2018-08-16T12:02:59.986Z,3.63
2018-08-16T12:05:28.166Z,2.70
2018-08-16T12:07:56.330Z,2.90
2018-08-16T12:10:24.499Z,6.17
2018-08-16T12:12:52.668Z,2.90
2018-08-16T12:15:20.879Z,2.80
2018-08-16T12:17:49.022Z,2.97
2018-08-16T12:20:17.193Z,3.27
2018-08-16T12:22:45.365Z,2.90
2018-08-16T12:25:13.532Z,3.53
2018-08-16T12:27:41.717Z,3.50
2018-08-16T12:30:10.184Z,2.87
2018-08-16T12:32:38.572Z,4.43
2018-08-16T12:35:07.456Z,3.03
2018-08-16T12:37:35.762Z,2.90
2018-08-16T12:40:04.797Z,2.80
2018-08-16T12:42:32.969Z,2.80
2018-08-16T12:45:01.140Z,3.03
2018-08-16T12:47:29.400Z,2.53
2018-08-16T12:49:57.522Z,2.50
2018-08-16T12:52:25.682Z,2.87
2018-08-16T12:54:53.862Z,2.50
2018-08-16T12:57:22.036Z,2.70
2018-08-16T12:59:50.208Z,2.77
2018-08-16T13:02:18.421Z,3.00
2018-08-16T13:04:46.605Z,3.83
2018-08-16T13:07:14.784Z,2.90
2018-08-16T13:09:43.062Z,2.37
2018-08-16T13:12:11.225Z,5.37
2018-08-16T13:14:39.410Z,2.53
2018-08-16T13:17:07.589Z,3.10
2018-08-16T13:19:35.781Z,2.67
2018-08-16T13:22:04.349Z,2.90
2018-08-16T13:24:32.525Z,2.50
2018-08-16T13:27:00.696Z,4.77
2018-08-16T13:29:28.878Z,2.73
2018-08-16T13:31:57.064Z,3.00
2018-08-16T13:34:25.398Z,3.17
2018-08-16T13:36:53.564Z,2.87
2018-08-16T13:39:21.736Z,3.00
2018-08-16T13:41:49.912Z,3.50
2018-08-16T13:44:18.093Z,3.07
2018-08-16T13:46:46.260Z,2.77
2018-08-16T13:49:14.448Z,3.20
2018-08-16T13:51:42.629Z,2.70
2018-08-16T13:54:10.803Z,2.77
2018-08-16T13:56:38.981Z,2.70
2018-08-16T13:59:07.158Z,3.07
2018-08-16T14:01:35.336Z,2.60
2018-08-16T14:04:03.519Z,2.60
2018-08-16T14:06:31.690Z,3.80
2018-08-16T14:08:59.872Z,2.50
2018-08-16T14:11:28.048Z,4.83
2018-08-16T14:13:56.226Z,4.73
2018-08-16T14:16:24.399Z,3.20
2018-08-16T14:18:52.657Z,2.33
2018-08-16T14:21:20.828Z,2.77
2018-08-16T14:23:49.005Z,2.50
2018-08-16T14:26:17.177Z,3.20
2018-08-16T14:28:45.349Z,2.90
2018-08-16T14:31:13.525Z,2.73
2018-08-16T14:33:41.700Z,2.43
2018-08-16T14:36:09.877Z,2.37
2018-08-16T14:38:38.086Z,2.53
2018-08-16T14:41:06.251Z,2.47
2018-08-16T14:43:34.417Z,3.20
2018-08-16T14:46:02.702Z,2.60
2018-08-16T14:48:30.861Z,3.33
2018-08-16T14:50:59.046Z,2.90
2018-08-16T14:53:27.221Z,2.70
2018-08-16T14:55:55.398Z,3.33
2018-08-16T14:58:23.564Z,2.93
2018-08-16T15:00:51.742Z,2.77
2018-08-16T15:03:19.909Z,3.57
2018-08-16T15:05:48.077Z,2.73
2018-08-16T15:08:16.245Z,3.23
2018-08-16T15:10:44.434Z,3.57
2018-08-16T15:13:12.598Z,2.97
2018-08-16T15:15:40.792Z,5.70
2018-08-16T15:18:09.158Z,2.27
2018-08-16T15:20:37.345Z,2.80
2018-08-16T15:23:05.517Z,2.30
2018-08-16T15:25:33.684Z,2.73
2018-08-16T15:28:01.857Z,2.70
2018-08-16T15:30:30.034Z,3.00
2018-08-16T15:32:58.217Z,2.70
2018-08-16T15:35:26.384Z,2.97
2018-08-16T15:37:54.569Z,2.70
2018-08-16T15:40:22.757Z,2.60
2018-08-16T15:42:50.929Z,2.70
2018-08-16T15:45:19.125Z,2.50
2018-08-16T15:47:47.296Z,2.27
2018-08-16T15:50:15.476Z,2.60
2018-08-16T15:52:43.659Z,2.37
2018-08-16T15:55:11.829Z,2.77
2018-08-16T15:57:40.004Z,2.37
2018-08-16T16:00:10.921Z,2.10
2018-08-16T16:02:40.294Z,2.37
2018-08-16T16:05:08.468Z,2.77
2018-08-16T16:07:36.644Z,2.30
2018-08-16T16:10:05.389Z,2.50
2018-08-16T16:12:33.556Z,3.07
2018-08-16T16:15:01.740Z,2.80
2018-08-16T16:17:29.925Z,3.07
2018-08-16T16:19:58.117Z,3.97
2018-08-16T16:22:26.304Z,3.17
2018-08-16T16:24:54.535Z,2.50
2018-08-16T16:27:22.665Z,2.87
2018-08-16T16:29:50.838Z,2.93
2018-08-16T16:32:19.053Z,2.80
2018-08-16T16:34:47.235Z,2.67
2018-08-16T16:37:15.453Z,3.87
2018-08-16T16:39:43.597Z,3.23
2018-08-16T16:42:12.017Z,2.60
2018-08-16T16:44:40.197Z,3.70
2018-08-16T16:47:08.672Z,2.50
2018-08-16T16:49:36.889Z,2.87
2018-08-16T16:52:05.033Z,2.93
2018-08-16T16:54:33.209Z,3.37
2018-08-16T16:57:01.384Z,2.97
2018-08-16T16:59:29.562Z,2.63
2018-08-16T17:01:57.741Z,4.10
2018-08-16T17:04:25.933Z,3.10
2018-08-16T17:06:54.381Z,3.60
2018-08-16T17:09:22.553Z,3.10
2018-08-16T17:11:50.735Z,3.53
2018-08-16T17:14:18.912Z,4.53
2018-08-16T17:16:47.085Z,4.27
2018-08-16T17:19:15.259Z,6.37
2018-08-16T17:21:43.437Z,5.30
2018-08-16T17:24:11.608Z,3.23
2018-08-16T17:26:39.789Z,3.70
2018-08-16T17:29:08.182Z,3.23
2018-08-16T17:31:36.357Z,3.20
2018-08-16T17:34:04.532Z,3.07
2018-08-16T17:36:32.793Z,3.80
2018-08-16T17:39:00.969Z,2.73
2018-08-16T17:41:29.169Z,3.40
2018-08-16T17:43:57.349Z,3.47
2018-08-16T17:46:25.524Z,4.20
2018-08-16T17:48:54.970Z,3.27
2018-08-16T17:51:23.573Z,4.27
2018-08-16T17:53:51.757Z,3.70
2018-08-16T17:56:19.961Z,3.00
2018-08-16T17:58:48.128Z,3.80
2018-08-16T18:01:16.308Z,3.40
2018-08-16T18:03:44.748Z,3.40
2018-08-16T18:06:12.932Z,5.43
2018-08-16T18:08:41.312Z,4.73
2018-08-16T18:11:09.956Z,3.97
2018-08-16T18:13:38.164Z,5.33
2018-08-16T18:16:06.337Z,3.87
2018-08-16T18:18:34.517Z,5.50
2018-08-16T18:21:02.692Z,4.07
2018-08-16T18:23:30.869Z,4.10
2018-08-16T18:25:59.045Z,4.40
2018-08-16T18:28:27.212Z,5.90
2018-08-16T18:30:55.409Z,15.77
2018-08-16T18:33:23.582Z,8.37
2018-08-16T18:35:51.784Z,4.20
2018-08-16T18:38:19.929Z,6.73
2018-08-16T18:40:48.101Z,7.07
2018-08-16T18:43:16.277Z,6.33
2018-08-16T18:45:44.549Z,3.73
2018-08-16T18:48:13.540Z,6.13
2018-08-16T18:50:41.721Z,5.17
2018-08-16T18:53:09.916Z,8.13
2018-08-16T18:55:38.081Z,5.67
2018-08-16T18:58:06.441Z,8.37
2018-08-16T19:00:34.629Z,6.53
2018-08-16T19:03:02.801Z,5.63
2018-08-16T19:05:31.177Z,5.40
2018-08-16T19:07:59.240Z,8.13
2018-08-16T19:10:27.416Z,6.13
2018-08-16T19:12:55.593Z,5.50
2018-08-16T19:15:23.768Z,6.13
2018-08-16T19:17:51.937Z,5.63
2018-08-16T19:20:20.116Z,12.83
2018-08-16T19:22:48.296Z,18.77
2018-08-16T19:25:16.472Z,53.40
2018-08-16T19:27:44.649Z,16.70
2018-08-16T19:30:12.837Z,22.30
2018-08-16T19:32:41.024Z,17.37
2018-08-16T19:35:09.202Z,16.47
2018-08-16T19:37:37.377Z,11.90
2018-08-16T19:40:06.109Z,7.60
2018-08-16T19:42:34.285Z,7.73
2018-08-16T19:45:02.481Z,11.47
2018-08-16T19:47:30.661Z,6.70
2018-08-16T19:49:58.849Z,6.87
2018-08-16T19:52:27.021Z,7.03
2018-08-16T19:54:55.204Z,7.50
2018-08-16T19:57:23.369Z,6.77
2018-08-16T19:59:51.558Z,8.53
2018-08-16T20:02:19.931Z,11.60
2018-08-16T20:04:48.109Z,12.17
2018-08-16T20:07:16.287Z,13.03
2018-08-16T20:09:44.473Z,12.53
2018-08-16T20:12:12.657Z,11.43
2018-08-16T20:14:40.836Z,12.27
2018-08-16T20:17:09.018Z,10.43
2018-08-16T20:19:37.293Z,10.60
2018-08-16T20:22:11.945Z,8.40
2018-08-16T20:24:40.118Z,7.87
2018-08-16T20:27:08.309Z,13.70
2018-08-16T20:29:36.497Z,7.87
2018-08-16T20:32:04.680Z,13.53
2018-08-16T20:34:32.866Z,22.50
2018-08-16T20:37:01.052Z,21.50
2018-08-16T20:39:29.228Z,11.77
2018-08-16T20:41:57.426Z,13.67
2018-08-16T20:44:25.601Z,14.43
2018-08-16T20:46:53.777Z,11.90
2018-08-16T20:49:21.953Z,10.70
2018-08-16T20:51:50.132Z,11.00
2018-08-16T20:54:18.317Z,7.80
2018-08-16T20:56:46.502Z,7.63
2018-08-16T20:59:14.673Z,7.43
2018-08-16T21:01:42.854Z,7.77
2018-08-16T21:04:11.030Z,6.47
2018-08-16T21:06:39.206Z,6.53
2018-08-16T21:09:08.416Z,9.73
2018-08-16T21:11:36.608Z,12.80
2018-08-16T21:14:04.825Z,9.83
2018-08-16T21:16:33.063Z,7.30
2018-08-16T21:19:01.201Z,9.77
2018-08-16T21:21:29.381Z,11.03
2018-08-16T21:23:57.566Z,15.20
2018-08-16T21:26:25.740Z,10.37
2018-08-16T21:28:53.924Z,14.53
2018-08-16T21:31:22.109Z,22.63
2018-08-16T21:33:50.296Z,21.63
2018-08-16T21:36:18.485Z,16.83
2018-08-16T21:38:47.533Z,20.37
2018-08-16T21:41:15.705Z,9.60
2018-08-16T21:43:43.880Z,10.17
2018-08-16T21:46:12.069Z,7.53
2018-08-16T21:48:40.257Z,7.80
2018-08-16T21:51:08.470Z,8.17
2018-08-16T21:53:36.645Z,7.63
2018-08-16T21:56:04.838Z,8.43
2018-08-16T21:58:33.013Z,10.50
2018-08-16T22:01:08.353Z,6.83
2018-08-16T22:03:36.537Z,8.77
2018-08-16T22:06:08.856Z,7.13
2018-08-16T22:08:48.988Z,9.90
2018-08-16T22:11:17.200Z,16.63
2018-08-16T22:13:45.376Z,20.63
2018-08-16T22:16:13.560Z,8.37
2018-08-16T22:18:41.732Z,8.07
2018-08-16T22:21:10.282Z,10.00
2018-08-16T22:23:38.469Z,10.70
2018-08-16T22:26:06.717Z,11.47
2018-08-16T22:28:34.845Z,6.80
2018-08-16T22:31:03.029Z,7.93
2018-08-16T22:33:31.556Z,7.60
2018-08-16T22:35:59.749Z,7.70
2018-08-16T22:38:27.929Z,7.23
2018-08-16T22:40:56.109Z,7.50
2018-08-16T22:43:24.284Z,6.70
2018-08-16T22:45:52.472Z,11.67
2018-08-16T22:48:20.649Z,6.33
2018-08-16T22:50:48.826Z,5.83
2018-08-16T22:53:17.025Z,25.27
2018-08-16T22:55:45.205Z,11.50
2018-08-16T22:58:13.379Z,8.73
2018-08-16T23:00:41.566Z,16.50
2018-08-16T23:03:09.997Z,14.47
2018-08-16T23:05:38.172Z,24.40
2018-08-16T23:08:06.349Z,9.80
2018-08-16T23:10:34.536Z,9.23
2018-08-16T23:13:02.701Z,6.13
2018-08-16T23:15:30.893Z,12.97
2018-08-16T23:17:59.077Z,18.80
2018-08-16T23:20:27.259Z,18.97
2018-08-16T23:22:55.445Z,19.07
2018-08-16T23:25:23.617Z,14.23
2018-08-16T23:27:51.795Z,11.93
2018-08-16T23:30:19.978Z,12.57
2018-08-16T23:32:48.161Z,27.43
2018-08-16T23:35:16.347Z,20.93
2018-08-16T23:37:44.524Z,28.03
2018-08-16T23:40:13.713Z,13.53
2018-08-16T23:42:42.192Z,18.13
2018-08-16T23:45:11.085Z,24.57
2018-08-16T23:47:39.293Z,22.53
2018-08-16T23:50:09.285Z,25.27
2018-08-16T23:52:37.465Z,29.30
2018-08-16T23:55:06.717Z,27.20
2018-08-16T23:57:34.901Z,21.37
